Time;durP1;ratioP1;P1;durP2;ratioP2;P2;SDS_P1;SDS_P2;PMS_P1;PMS_P2;Temp;Humidity;BMP_temperature;BMP_pressure;BME280_temperature;BME280_humidity;BME280_pressure;Samples;Min_cycle;Max_cycle;Signal;HPM_P1;HPM_P2
2023/02/13 00:01:24;;;;;;;4.80;1.80;;;;;;;-0.89;50.57;101941.31;105548;1260;70100;-54
2023/02/13 00:03:59;;;;;;;9.10;1.90;;;;;;;-0.92;50.60;101940.80;105357;1259;73691;-54
2023/02/13 00:06:28;;;;;;;5.70;1.90;;;;;;;-0.94;50.70;101940.48;105334;1259;60482;-54
2023/02/13 00:08:56;;;;;;;5.30;2.00;;;;;;;-0.98;50.76;101943.09;106238;1253;61866;-54
2023/02/13 00:11:28;;;;;;;7.20;2.30;;;;;;;-1.00;50.96;101939.84;105253;1254;74072;-54
2023/02/13 00:13:57;;;;;;;6.40;2.30;;;;;;;-1.04;51.06;101937.27;105686;1256;70541;-52
2023/02/13 00:16:26;;;;;;;6.70;1.60;;;;;;;-1.10;51.17;101935.95;105239;1260;72949;-53
2023/02/13 00:19:01;;;;;;;7.10;3.20;;;;;;;-1.15;51.42;101938.05;105247;1254;61564;-53
2023/02/13 00:21:34;;;;;;;8.40;2.30;;;;;;;-1.19;51.58;101932.89;105156;1254;60473;-51
2023/02/13 00:24:04;;;;;;;7.30;1.70;;;;;;;-1.22;51.61;101927.23;105094;1254;74902;-50
2023/02/13 00:26:33;;;;;;;6.40;1.80;;;;;;;-1.23;51.72;101924.83;105142;1254;71001;-53
2023/02/13 00:29:08;;;;;;;5.30;1.90;;;;;;;-1.24;51.69;101924.34;105378;1257;72685;-54
2023/02/13 00:31:39;;;;;;;5.70;2.40;;;;;;;-1.25;51.74;101923.47;105394;1254;61632;-53
2023/02/13 00:34:07;;;;;;;6.90;2.30;;;;;;;-1.27;51.84;101921.59;105416;1254;61044;-53
2023/02/13 00:36:36;;;;;;;10.50;2.50;;;;;;;-1.33;51.92;101918.01;105192;1257;75101;-53
2023/02/13 00:39:04;;;;;;;6.30;1.70;;;;;;;-1.36;52.11;101921.63;105376;1254;71287;-53
2023/02/13 00:41:33;;;;;;;6.90;2.40;;;;;;;-1.39;52.21;101925.79;105243;1259;73653;-53
2023/02/13 00:44:02;;;;;;;6.30;2.20;;;;;;;-1.40;52.29;101920.27;105372;1254;61100;-54
2023/02/13 00:46:31;;;;;;;6.90;2.50;;;;;;;-1.42;52.36;101915.64;105376;1254;61315;-54
2023/02/13 00:49:00;;;;;;;6.70;2.10;;;;;;;-1.44;52.33;101908.27;106002;1254;73490;-54
2023/02/13 00:51:28;;;;;;;7.60;1.50;;;;;;;-1.44;52.42;101913.43;105320;1254;71136;-54
2023/02/13 00:53:58;;;;;;;8.70;3.40;;;;;;;-1.47;52.47;101909.15;105477;1259;73255;-54
2023/02/13 00:56:27;;;;;;;6.30;1.90;;;;;;;-1.49;52.47;101907.08;105161;1254;61418;-52
2023/02/13 00:58:59;;;;;;;5.30;1.90;;;;;;;-1.53;52.60;101902.79;105191;1254;61404;-52
2023/02/13 01:01:28;;;;;;;5.70;1.90;;;;;;;-1.53;52.65;101902.46;105259;1258;74581;-52
2023/02/13 01:03:57;;;;;;;8.90;2.10;;;;;;;-1.53;52.63;101900.90;105325;1254;70943;-52
2023/02/13 01:06:26;;;;;;;5.10;2.10;;;;;;;-1.53;52.64;101897.63;105884;1259;74010;-53
2023/02/13 01:08:54;;;;;;;8.50;2.10;;;;;;;-1.55;52.77;101891.46;105625;1254;63252;-53
2023/02/13 01:11:22;;;;;;;5.30;1.60;;;;;;;-1.57;52.77;101885.09;105320;1254;60538;-56
2023/02/13 01:13:51;;;;;;;8.60;2.60;;;;;;;-1.57;52.78;101880.96;105487;1254;73516;-54
2023/02/13 01:16:21;;;;;;;5.50;1.80;;;;;;;-1.59;52.82;101885.11;105552;1259;71185;-53
2023/02/13 01:18:50;;;;;;;6.30;1.50;;;;;;;-1.61;53.00;101882.38;104980;1259;587852;-53
2023/02/13 01:21:20;;;;;;;6.00;1.90;;;;;;;-1.65;52.94;101881.02;105253;1254;61094;-53
2023/02/13 01:24:32;;;;;;;6.80;2.30;;;;;;;-1.82;53.41;101880.56;102412;1292;600595;-53
2023/02/13 01:27:01;;;;;;;5.40;2.10;;;;;;;-1.69;53.10;101879.32;104679;1267;61054;-52
2023/02/13 01:29:30;;;;;;;6.90;1.90;;;;;;;-1.70;53.14;101879.83;104733;1264;61039;-53
2023/02/13 01:32:01;;;;;;;5.90;1.90;;;;;;;-1.71;53.21;101878.98;105430;1268;73082;-53
2023/02/13 01:34:31;;;;;;;7.60;2.70;;;;;;;-1.72;53.34;101875.88;104580;1269;70503;-53
2023/02/13 01:37:03;;;;;;;5.80;2.00;;;;;;;-1.74;53.31;101871.24;104639;1268;194295;-53
2023/02/13 01:39:31;;;;;;;7.30;1.90;;;;;;;-1.76;53.44;101870.91;104638;1264;61240;-53
2023/02/13 01:42:00;;;;;;;6.60;2.60;;;;;;;-1.77;53.47;101867.98;104867;1263;61471;-53
2023/02/13 01:44:53;;;;;;;6.40;1.90;;;;;;;-1.78;53.58;101863.01;104843;1266;72894;-53
2023/02/13 01:47:32;;;;;;;10.30;2.50;;;;;;;-1.80;53.62;101862.15;105207;1265;62758;-54
2023/02/13 01:50:11;;;;;;;7.30;1.60;;;;;;;-1.85;53.72;101858.73;104763;1265;73830;-53
2023/02/13 01:52:45;;;;;;;7.10;2.40;;;;;;;-1.87;53.88;101858.93;104710;1266;61304;-54
2023/02/13 01:55:14;;;;;;;6.50;2.60;;;;;;;-1.92;54.16;101861.70;104653;1263;61191;-54
2023/02/13 01:57:48;;;;;;;6.00;1.70;;;;;;;-1.96;54.36;101866.89;104788;1264;72733;-54
2023/02/13 02:00:18;;;;;;;6.10;1.80;;;;;;;-2.00;54.53;101866.02;105127;1266;70231;-55
2023/02/13 02:02:51;;;;;;;7.30;2.10;;;;;;;-2.05;54.71;101865.36;104973;1266;72119;-55
2023/02/13 02:05:23;;;;;;;5.60;2.40;;;;;;;-2.07;54.84;101862.11;105008;1263;61042;-56
2023/02/13 02:07:57;;;;;;;3.70;1.40;;;;;;;-2.09;55.05;101859.35;104805;1263;60325;-54
2023/02/13 02:10:26;;;;;;;7.40;1.80;;;;;;;-2.10;55.20;101854.20;104845;1264;74026;-54
2023/02/13 02:13:18;;;;;;;6.10;2.00;;;;;;;-2.10;55.31;101855.77;104642;1267;71005;-54
2023/02/13 02:15:49;;;;;;;7.10;2.10;;;;;;;-2.11;55.45;101849.92;104929;1265;64226;-54
2023/02/13 02:18:19;;;;;;;7.30;3.50;;;;;;;-2.10;55.55;101847.14;104768;1262;60400;-53
2023/02/13 02:21:09;;;;;;;8.60;2.00;;;;;;;-2.09;55.53;101841.98;104696;1262;61238;-53
2023/02/13 02:23:58;;;;;;;10.30;2.10;;;;;;;-2.08;55.67;101846.64;105401;1268;73728;-54
2023/02/13 02:26:58;;;;;;;6.80;1.80;;;;;;;-2.06;55.77;101845.77;104610;1264;70877;-54
2023/02/13 02:30:01;;;;;;;6.00;1.60;;;;;;;-2.06;55.88;101842.15;104785;1268;65171;-55
2023/02/13 02:32:36;;;;;;;7.00;2.50;;;;;;;-1.96;55.76;101842.45;104737;1269;59752;-55
2023/02/13 02:35:32;;;;;;;4.40;1.20;;;;;;;-1.97;55.90;101840.73;104607;1276;60060;-55
2023/02/13 02:38:13;;;;;;;8.80;2.40;;;;;;;-1.97;55.89;101840.58;104856;1268;65878;-55
2023/02/13 02:41:40;;;;;;;4.80;1.50;;;;;;;-1.97;55.97;101836.96;104480;1266;71186;-54
2023/02/13 02:44:38;;;;;;;4.40;1.30;;;;;;;-1.97;56.13;101835.73;104588;1268;64977;-55
2023/02/13 02:50:40;;;;;;;4.40;1.20;;;;;;;-1.95;56.22;101837.11;104639;1268;59719;-55
2023/02/13 02:53:15;;;;;;;5.10;1.40;;;;;;;-1.93;56.20;101836.42;104572;1270;65574;-55
2023/02/13 02:55:57;;;;;;;9.30;1.50;;;;;;;-1.93;56.14;101834.70;104655;1266;71401;-55
2023/02/13 03:07:11;;;;;;;4.00;1.30;;;;;;;-1.92;56.44;101849.30;105206;1256;73400;-51
2023/02/13 03:24:17;;;;;;;3.60;1.20;;;;;;;-1.84;57.21;101821.23;105127;1257;62708;-54
2023/02/13 03:27:01;;;;;;;4.00;1.40;;;;;;;-1.82;57.34;101818.81;105283;1259;72605;-55
2023/02/13 03:30:06;;;;;;;2.00;0.50;;;;;;;-1.78;57.49;101818.45;105183;1265;60144;-53
2023/02/13 03:32:42;;;;;;;3.50;0.80;;;;;;;-1.69;57.56;101816.33;105142;1263;59625;-54
2023/02/13 03:38:04;;;;;;;3.10;0.60;;;;;;;-1.47;57.39;101805.69;105139;1260;62653;-54
2023/02/13 03:41:17;;;;;;;2.70;1.20;;;;;;;-1.37;57.33;101805.79;105252;1257;74208;-54
2023/02/13 03:43:35;;;;;;;2.30;0.80;;;;;;;-1.27;57.23;101798.83;105185;1257;60071;-55
2023/02/13 03:46:03;;;;;;;3.70;1.00;;;;;;;-1.18;57.17;101799.09;105277;1258;61184;-54
2023/02/13 03:51:24;;;;;;;7.20;2.20;;;;;;;-1.18;57.34;101794.45;105458;1259;61479;-54
2023/02/13 03:53:55;;;;;;;4.10;0.90;;;;;;;-1.19;57.37;101791.55;105062;1260;73668;-54
2023/02/13 03:59:19;;;;;;;4.10;1.50;;;;;;;-1.24;57.65;101788.30;105245;1260;61340;-55
2023/02/13 04:01:59;;;;;;;5.80;1.60;;;;;;;-1.29;57.69;101787.47;105552;1256;73946;-55
2023/02/13 04:04:30;;;;;;;4.90;1.10;;;;;;;-1.34;57.84;101782.52;105277;1263;70275;-53
2023/02/13 04:07:02;;;;;;;5.50;1.90;;;;;;;-1.36;57.93;101777.54;105209;1261;73651;-55
2023/02/13 04:09:30;;;;;;;4.50;1.30;;;;;;;-1.38;58.04;101773.44;105703;1261;60560;-56
2023/02/13 04:12:24;;;;;;;5.20;1.10;;;;;;;-1.41;58.16;101775.69;105315;1257;60744;-55
2023/02/13 04:15:15;;;;;;;4.40;1.00;;;;;;;-1.43;58.22;101765.05;105326;1259;65514;-54
2023/02/13 04:17:50;;;;;;;4.60;1.20;;;;;;;-1.46;58.44;101762.31;105208;1261;71750;-54
2023/02/13 04:20:19;;;;;;;5.70;1.20;;;;;;;-1.49;58.51;101757.51;105355;1260;72527;-55
2023/02/13 04:22:47;;;;;;;3.70;0.80;;;;;;;-1.51;58.63;101751.16;105319;1261;60140;-55
2023/02/13 04:25:16;;;;;;;3.20;0.90;;;;;;;-1.52;58.77;101751.00;105229;1258;61151;-56
2023/02/13 04:27:44;;;;;;;4.50;1.60;;;;;;;-1.54;58.87;101748.42;105950;1259;73948;-57
2023/02/13 04:30:14;;;;;;;3.60;0.90;;;;;;;-1.55;59.03;101745.16;105292;1260;70120;-56
2023/02/13 04:32:42;;;;;;;4.00;1.10;;;;;;;-1.55;59.17;101749.48;105182;1259;73596;-56
2023/02/13 04:35:12;;;;;;;6.30;1.60;;;;;;;-1.55;59.19;101747.74;105121;1260;60034;-56
2023/02/13 04:37:41;;;;;;;4.70;1.10;;;;;;;-1.53;59.15;101747.91;105310;1260;61139;-56
2023/02/13 04:40:10;;;;;;;6.40;1.60;;;;;;;-1.51;59.23;101748.41;105268;1260;74009;-56
2023/02/13 04:42:38;;;;;;;3.60;1.60;;;;;;;-1.48;59.31;101750.45;105035;1261;70384;-57
2023/02/13 04:45:07;;;;;;;5.10;1.70;;;;;;;-1.46;59.43;101750.27;105083;1261;73560;-56
2023/02/13 04:47:35;;;;;;;5.40;1.40;;;;;;;-1.43;59.31;101752.48;105193;1269;60585;-56
2023/02/13 04:50:05;;;;;;;3.60;1.20;;;;;;;-1.38;59.34;101751.23;105055;1255;61025;-55
2023/02/13 04:52:33;;;;;;;3.80;0.80;;;;;;;-1.25;59.12;101752.49;104673;1262;73913;-55
2023/02/13 04:55:02;;;;;;;5.70;1.60;;;;;;;-1.11;58.91;101747.88;104983;1255;71231;-56
2023/02/13 04:57:31;;;;;;;4.40;1.10;;;;;;;-0.97;58.69;101744.13;105111;1260;73447;-56
2023/02/13 04:59:59;;;;;;;4.60;1.20;;;;;;;-0.85;58.57;101742.28;105294;1256;62151;-55
2023/02/13 05:02:28;;;;;;;4.20;1.20;;;;;;;-0.73;58.37;101743.70;105219;1259;60731;-55
2023/02/13 05:04:56;;;;;;;5.20;1.60;;;;;;;-0.65;58.21;101740.17;105283;1260;73781;-56
2023/02/13 05:07:28;;;;;;;5.00;1.10;;;;;;;-0.62;58.17;101742.36;105921;1258;71308;-56
2023/02/13 05:09:56;;;;;;;8.20;2.10;;;;;;;-0.60;57.95;101738.88;105337;1260;73466;-56
2023/02/13 05:12:24;;;;;;;4.90;1.30;;;;;;;-0.61;57.91;101744.09;105499;1257;60130;-53
2023/02/13 05:14:53;;;;;;;3.50;1.00;;;;;;;-0.66;58.03;101745.34;105377;1254;61019;-54
2023/02/13 05:17:22;;;;;;;12.70;1.90;;;;;;;-0.69;58.18;101743.14;105396;1267;74005;-55
2023/02/13 05:19:50;;;;;;;5.20;1.60;;;;;;;-0.72;58.30;101742.65;105541;1260;71853;-54
2023/02/13 05:25:09;;;;;;;5.30;1.30;;;;;;;-0.73;58.43;101743.70;105319;1256;59670;-55
2023/02/13 05:27:37;;;;;;;4.40;1.40;;;;;;;-0.71;58.53;101746.78;105418;1258;61243;-55
2023/02/13 05:30:06;;;;;;;5.50;1.40;;;;;;;-0.70;58.61;101749.17;105350;1259;73850;-55
2023/02/13 05:32:36;;;;;;;6.20;1.50;;;;;;;-0.68;58.71;101754.66;105342;1260;70284;-55
2023/02/13 05:35:05;;;;;;;4.90;1.90;;;;;;;-0.67;58.74;101756.04;105423;1268;74231;-55
2023/02/13 05:37:34;;;;;;;8.10;2.30;;;;;;;-0.65;58.76;101756.20;105553;1259;61264;-55
2023/02/13 05:40:04;;;;;;;5.80;2.50;;;;;;;-0.62;58.77;101754.09;105540;1260;61386;-56
2023/02/13 05:42:32;;;;;;;4.80;2.30;;;;;;;-0.59;58.72;101749.55;105371;1257;73867;-54
2023/02/13 05:45:00;;;;;;;4.80;1.50;;;;;;;-0.57;58.69;101749.90;105292;1260;70798;-54
2023/02/13 05:47:28;;;;;;;5.30;2.00;;;;;;;-0.57;58.66;101743.35;105360;1257;73436;-56
2023/02/13 05:49:57;;;;;;;8.80;2.10;;;;;;;-0.57;58.71;101748.67;105257;1258;62820;-55
2023/02/13 05:52:26;;;;;;;7.30;1.60;;;;;;;-0.58;58.82;101746.95;105422;1257;60964;-56
2023/02/13 05:54:54;;;;;;;4.50;1.60;;;;;;;-0.57;58.76;101748.17;105609;1260;78114;-55
2023/02/13 05:57:23;;;;;;;5.30;2.00;;;;;;;-0.56;58.80;101743.15;105501;1258;71285;-55
2023/02/13 05:59:51;;;;;;;7.00;2.90;;;;;;;-0.50;58.75;101742.56;105085;1257;73604;-55
2023/02/13 06:02:19;;;;;;;8.00;1.80;;;;;;;-0.40;58.47;101740.90;104900;1260;62409;-56
2023/02/13 06:04:48;;;;;;;6.00;1.90;;;;;;;-0.31;58.40;101739.92;105232;1261;60496;-57
2023/02/13 06:07:16;;;;;;;6.70;2.10;;;;;;;-0.24;58.24;101734.48;105113;1260;74808;-56
2023/02/13 06:09:44;;;;;;;6.10;2.20;;;;;;;-0.21;58.21;101733.23;105291;1261;70052;-56
2023/02/13 06:12:12;;;;;;;6.00;2.20;;;;;;;-0.19;58.22;101730.95;105386;1260;73619;-56
2023/02/13 06:14:41;;;;;;;5.70;1.90;;;;;;;-0.15;58.22;101729.36;106971;1254;60497;-53
2023/02/13 06:17:10;;;;;;;5.70;1.40;;;;;;;-0.14;58.22;101723.13;105393;1255;61506;-56
2023/02/13 06:19:38;;;;;;;4.40;1.20;;;;;;;-0.12;58.18;101721.39;105449;1260;74750;-56
2023/02/13 06:22:07;;;;;;;7.80;2.00;;;;;;;-0.11;58.32;101721.55;109076;1254;71325;-59
2023/02/13 06:24:35;;;;;;;6.90;2.20;;;;;;;-0.09;58.46;101721.67;107143;1257;72685;-53
2023/02/13 06:27:04;;;;;;;3.90;1.40;;;;;;;-0.08;58.53;101721.15;105252;1257;60440;-56
2023/02/13 06:29:32;;;;;;;7.50;2.70;;;;;;;-0.05;58.62;101721.09;105204;1257;60451;-55
2023/02/13 06:32:01;;;;;;;5.70;2.00;;;;;;;-0.00;58.67;101718.80;105724;1260;74652;-55
2023/02/13 06:34:29;;;;;;;5.80;1.60;;;;;;;0.04;58.76;101714.77;105434;1261;70915;-55
2023/02/13 06:36:58;;;;;;;8.10;2.30;;;;;;;0.09;58.74;101714.00;106538;1259;72139;-55
2023/02/13 06:39:27;;;;;;;5.50;2.10;;;;;;;0.12;58.81;101706.87;106160;1254;60474;-55
2023/02/13 06:41:55;;;;;;;11.90;4.40;;;;;;;0.16;58.92;101702.67;105435;1257;62196;-55
2023/02/13 06:44:24;;;;;;;7.60;2.20;;;;;;;0.22;58.89;101696.21;105384;1260;74807;-55
2023/02/13 06:46:53;;;;;;;6.70;2.40;;;;;;;0.26;58.91;101693.02;105370;1260;70296;-55
2023/02/13 06:49:21;;;;;;;9.60;2.80;;;;;;;0.32;58.92;101696.89;105380;1260;73583;-55
2023/02/13 06:51:49;;;;;;;7.20;2.50;;;;;;;0.39;58.85;101692.14;105830;1257;60463;-55
2023/02/13 06:54:18;;;;;;;9.70;3.30;;;;;;;0.46;58.78;101695.13;106039;1254;61296;-56
2023/02/13 06:56:46;;;;;;;5.70;1.90;;;;;;;0.56;58.69;101696.33;105690;1260;74806;-54
2023/02/13 06:59:15;;;;;;;7.10;2.30;;;;;;;0.72;58.51;101693.45;105100;1260;71238;-53
2023/02/13 07:01:43;;;;;;;11.50;2.50;;;;;;;0.86;58.34;101693.71;105488;1260;73535;-54
2023/02/13 07:04:11;;;;;;;8.40;3.10;;;;;;;1.01;58.04;101686.02;105259;1254;60565;-53
2023/02/13 07:06:41;;;;;;;11.90;4.40;;;;;;;1.09;57.76;101690.34;105434;1256;62497;-53
2023/02/13 07:09:12;;;;;;;7.30;2.90;;;;;;;1.13;57.75;101684.41;105638;1259;74725;-54
2023/02/13 07:11:40;;;;;;;12.00;3.30;;;;;;;1.16;57.71;101685.20;105521;1260;70522;-54
2023/02/13 07:14:08;;;;;;;11.70;4.80;;;;;;;1.18;57.69;101678.24;105444;1259;73630;-52
2023/02/13 07:16:38;;;;;;;8.10;3.10;;;;;;;1.21;57.65;101676.45;105574;1254;60457;-53
2023/02/13 07:19:07;;;;;;;7.70;3.10;;;;;;;1.23;57.65;101673.30;105477;1257;61158;-54
2023/02/13 07:21:36;;;;;;;9.30;4.50;;;;;;;1.26;57.61;101672.03;105369;1259;74731;-53
2023/02/13 07:24:05;;;;;;;7.60;2.80;;;;;;;1.29;57.63;101666.96;105347;1258;73039;-53
2023/02/13 07:26:35;;;;;;;8.30;2.90;;;;;;;1.27;57.70;101663.52;105458;1260;73963;-53
2023/02/13 07:29:04;;;;;;;8.40;3.10;;;;;;;1.26;57.81;101661.48;105205;1257;60535;-55
2023/02/13 07:31:39;;;;;;;7.50;2.50;;;;;;;1.25;57.89;101654.93;105324;1260;60434;-55
2023/02/13 07:34:07;;;;;;;6.70;2.90;;;;;;;1.25;57.98;101653.72;105375;1259;74548;-54
2023/02/13 07:36:35;;;;;;;7.50;2.60;;;;;;;1.25;58.11;101650.09;105808;1257;71363;-55
2023/02/13 07:39:04;;;;;;;7.80;3.60;;;;;;;1.30;58.18;101652.95;106477;1257;74057;-53
2023/02/13 07:41:33;;;;;;;11.30;4.20;;;;;;;1.35;58.22;101652.99;105751;1261;60455;-52
2023/02/13 07:44:02;;;;;;;9.20;3.60;;;;;;;1.41;58.19;101651.13;105383;1260;61118;-51
2023/02/13 07:46:31;;;;;;;9.20;3.60;;;;;;;1.50;57.89;101642.64;105273;1259;73803;-53
2023/02/13 07:48:59;;;;;;;8.40;3.10;;;;;;;1.67;57.73;101643.14;105440;1258;72422;-52
2023/02/13 07:51:28;;;;;;;10.10;3.30;;;;;;;1.83;57.37;101643.81;105456;1257;72018;-51
2023/02/13 07:53:56;;;;;;;10.10;3.60;;;;;;;1.94;57.12;101647.35;105276;1260;60777;-52
2023/02/13 07:56:24;;;;;;;6.70;2.80;;;;;;;1.99;56.83;101651.03;105302;1257;61181;-54
2023/02/13 07:58:53;;;;;;;11.00;3.80;;;;;;;2.00;56.77;101648.75;105350;1259;74830;-53
2023/02/13 08:01:21;;;;;;;11.00;3.60;;;;;;;2.01;56.84;101643.02;105318;1257;71169;-52
2023/02/13 08:03:50;;;;;;;11.50;4.10;;;;;;;2.02;56.81;101639.54;105179;1263;73710;-53
2023/02/13 08:06:19;;;;;;;8.40;2.80;;;;;;;2.05;56.86;101638.10;105788;1257;60440;-53
2023/02/13 08:08:47;;;;;;;11.20;4.50;;;;;;;2.09;57.00;101635.41;105082;1258;61074;-53
2023/02/13 08:11:54;;;;;;;10.70;3.90;;;;;;;2.16;56.94;101641.98;105859;1257;74994;-53
2023/02/13 08:14:24;;;;;;;10.50;3.20;;;;;;;2.23;56.65;101638.52;105395;1259;61506;-52
2023/02/13 08:16:53;;;;;;;9.80;4.20;;;;;;;2.28;56.76;101631.13;105425;1258;72552;-53
2023/02/13 08:19:21;;;;;;;12.50;4.50;;;;;;;2.32;56.65;101623.92;105245;1257;60896;-52
2023/02/13 08:21:49;;;;;;;9.90;4.30;;;;;;;2.34;56.59;101618.84;105360;1259;61355;-52
2023/02/13 08:24:19;;;;;;;12.50;4.30;;;;;;;2.39;56.71;101614.38;105531;1257;74571;-54
2023/02/13 08:26:48;;;;;;;10.20;4.70;;;;;;;2.46;56.41;101619.23;105351;1259;70209;-52
2023/02/13 08:29:17;;;;;;;8.30;4.30;;;;;;;2.47;56.21;101614.17;105710;1258;73952;-52
2023/02/13 08:31:45;;;;;;;9.30;3.60;;;;;;;2.45;56.37;101606.42;106672;1255;60848;-52
2023/02/13 08:34:14;;;;;;;13.40;5.30;;;;;;;2.44;56.32;101608.20;105724;1257;61051;-52
2023/02/13 08:36:42;;;;;;;10.80;4.30;;;;;;;2.40;56.49;101611.06;105661;1259;74853;-52
2023/02/13 08:39:11;;;;;;;8.70;3.90;;;;;;;2.40;56.47;101597.89;105576;1257;71264;-51
2023/02/13 08:41:41;;;;;;;10.10;5.90;;;;;;;2.43;56.68;101595.93;105404;1259;72311;-51
2023/02/13 08:44:10;;;;;;;13.70;5.50;;;;;;;2.46;56.77;101595.84;105320;1257;60361;-51
2023/02/13 08:46:38;;;;;;;14.10;5.30;;;;;;;2.49;56.74;101611.86;105348;1257;60559;-51
2023/02/13 08:49:07;;;;;;;9.80;5.40;;;;;;;2.56;56.50;101605.11;105520;1259;73536;-52
2023/02/13 08:51:36;;;;;;;12.80;5.70;;;;;;;2.65;56.51;101596.36;105418;1257;71217;-52
2023/02/13 08:54:04;;;;;;;10.50;5.10;;;;;;;2.71;56.23;101605.91;105347;1257;73368;-53
2023/02/13 08:56:33;;;;;;;12.60;5.20;;;;;;;2.69;56.22;101604.04;106291;1257;59757;-50
2023/02/13 08:59:02;;;;;;;11.50;5.60;;;;;;;2.64;56.40;101594.48;105467;1260;60403;-52
2023/02/13 09:01:30;;;;;;;30.10;6.60;;;;;;;2.60;56.54;101596.50;105478;1259;74827;-50
2023/02/13 09:03:59;;;;;;;12.90;6.10;;;;;;;2.58;56.53;101595.17;105485;1258;71258;-50
2023/02/13 09:06:27;;;;;;;12.10;5.10;;;;;;;2.54;56.71;101595.42;105351;1259;72174;-51
2023/02/13 09:08:56;;;;;;;13.20;6.20;;;;;;;2.51;56.86;101590.18;105463;1257;61039;-53
2023/02/13 09:11:25;;;;;;;14.60;7.80;;;;;;;2.48;57.07;101582.80;105355;1258;61113;-51
2023/02/13 09:13:59;;;;;;;12.30;6.20;;;;;;;2.47;57.09;101593.23;105555;1257;74984;-51
2023/02/13 09:16:28;;;;;;;19.20;13.80;;;;;;;2.42;57.25;101591.09;105332;1260;70183;-51
2023/02/13 09:18:56;;;;;;;12.30;6.60;;;;;;;2.41;57.42;101592.52;105443;1258;73873;-51
2023/02/13 09:21:25;;;;;;;13.90;6.00;;;;;;;2.35;57.56;101591.63;106159;1254;61722;-51
2023/02/13 09:23:54;;;;;;;11.90;5.20;;;;;;;2.28;57.94;101589.02;105424;1255;61376;-51
2023/02/13 09:26:22;;;;;;;13.30;5.40;;;;;;;2.20;58.19;101584.55;105452;1256;73877;-51
2023/02/13 09:28:50;;;;;;;16.80;7.00;;;;;;;2.16;58.65;101583.64;105421;1258;71883;-53
2023/02/13 09:31:19;;;;;;;12.80;4.60;;;;;;;2.19;58.58;101579.92;105363;1256;73553;-53
2023/02/13 09:33:49;;;;;;;14.40;5.90;;;;;;;2.29;58.70;101582.45;105366;1258;60705;-53
2023/02/13 09:36:21;;;;;;;13.20;7.20;;;;;;;2.37;58.74;101579.11;105459;1257;61254;-52
2023/02/13 09:38:54;;;;;;;13.00;7.10;;;;;;;2.43;58.87;101579.81;105712;1259;74835;-53
2023/02/13 09:41:27;;;;;;;14.00;5.00;;;;;;;2.52;58.93;101567.98;105446;1257;71265;-53
2023/02/13 09:43:58;;;;;;;13.40;6.10;;;;;;;2.57;58.88;101567.14;105173;1257;73663;-53
2023/02/13 09:46:34;;;;;;;15.70;6.10;;;;;;;2.59;58.95;101563.80;105405;1256;61270;-52
2023/02/13 09:49:08;;;;;;;13.70;6.40;;;;;;;2.56;59.25;101559.36;105568;1261;61669;-52
2023/02/13 09:51:36;;;;;;;13.30;6.10;;;;;;;2.53;59.46;101556.85;105417;1257;74937;-52
2023/02/13 09:54:06;;;;;;;15.40;5.70;;;;;;;2.50;59.60;101556.41;105476;1257;70256;-51
2023/02/13 09:56:34;;;;;;;10.90;5.30;;;;;;;2.53;59.75;101550.80;105444;1257;73754;-51
2023/02/13 09:59:11;;;;;;;14.10;6.50;;;;;;;2.55;59.76;101551.77;105516;1259;60563;-52
2023/02/13 10:01:42;;;;;;;12.90;6.30;;;;;;;2.54;59.89;101551.62;105615;1257;60382;-51
2023/02/13 10:04:23;;;;;;;12.90;5.10;;;;;;;2.51;60.06;101545.63;105473;1260;74770;-51
2023/02/13 10:07:01;;;;;;;13.60;5.70;;;;;;;2.54;60.20;101542.27;105396;1258;62638;-51
2023/02/13 10:10:22;;;;;;;14.40;5.80;;;;;;;2.62;60.23;101537.55;105484;1256;73697;-51
2023/02/13 10:13:09;;;;;;;13.00;5.80;;;;;;;2.65;60.24;101529.48;105340;1256;60473;-50
2023/02/13 10:15:51;;;;;;;10.60;5.10;;;;;;;2.68;60.33;101527.51;105644;1256;60967;-51
2023/02/13 10:18:22;;;;;;;15.10;6.10;;;;;;;2.69;60.40;101525.56;105494;1259;73974;-51
2023/02/13 10:20:55;;;;;;;13.50;5.30;;;;;;;2.72;60.52;101519.23;105574;1258;70471;-51
2023/02/13 10:23:26;;;;;;;15.10;6.40;;;;;;;2.76;60.55;101514.10;105359;1259;72130;-50
2023/02/13 10:25:59;;;;;;;11.50;5.40;;;;;;;2.74;60.83;101505.48;105274;1257;60566;-51
2023/02/13 10:28:34;;;;;;;14.10;5.70;;;;;;;2.71;60.84;101500.21;105425;1259;60461;-51
2023/02/13 10:31:06;;;;;;;10.00;5.20;;;;;;;2.72;60.98;101491.71;105439;1259;74870;-51
2023/02/13 10:33:51;;;;;;;10.50;5.00;;;;;;;2.74;61.10;101481.92;105514;1257;71056;-51
2023/02/13 10:36:21;;;;;;;12.60;6.30;;;;;;;2.90;60.99;101480.06;105610;1257;73440;-54
2023/02/13 10:38:58;;;;;;;11.80;6.40;;;;;;;3.09;60.76;101479.66;105462;1256;62204;-53
2023/02/13 10:41:53;;;;;;;12.00;5.30;;;;;;;3.21;60.42;101479.98;105435;1256;61074;-51
2023/02/13 10:44:45;;;;;;;14.10;5.50;;;;;;;3.27;60.34;101471.64;105278;1257;65372;-51
2023/02/13 10:47:29;;;;;;;13.10;6.60;;;;;;;3.31;60.29;101477.92;105490;1259;62649;-51
2023/02/13 10:50:53;;;;;;;14.60;6.40;;;;;;;3.32;60.26;101487.27;105644;1258;65079;-50
2023/02/13 10:53:36;;;;;;;12.40;5.70;;;;;;;3.30;60.45;101488.35;105131;1261;60403;-52
2023/02/13 10:56:16;;;;;;;12.30;6.50;;;;;;;3.30;60.68;101484.71;106083;1257;60437;-52
2023/02/13 10:59:03;;;;;;;12.70;5.60;;;;;;;3.32;60.76;101486.39;105475;1258;74630;-51
2023/02/13 11:01:43;;;;;;;;;;;;;;;3.41;60.62;101484.52;105727;1255;62507;-52
2023/02/13 11:04:14;;;;;;;11.10;5.10;;;;;;;3.47;60.62;101481.23;105608;1259;73609;-52
2023/02/13 11:06:51;;;;;;;11.60;5.30;;;;;;;3.51;60.67;101480.02;105484;1259;60584;-52
2023/02/13 11:09:21;;;;;;;11.60;5.50;;;;;;;3.53;60.61;101479.96;105727;1257;61228;-51
2023/02/13 11:11:49;;;;;;;11.00;5.20;;;;;;;3.51;60.66;101479.00;105388;1257;74801;-51
2023/02/13 11:14:20;;;;;;;10.40;4.70;;;;;;;3.50;60.77;101477.31;105360;1256;71402;-51
2023/02/13 11:16:59;;;;;;;12.60;6.80;;;;;;;3.50;60.75;101481.13;105384;1256;73655;-51
2023/02/13 11:19:32;;;;;;;18.70;13.10;;;;;;;3.51;60.93;101477.79;105506;1260;60443;-52
2023/02/13 11:22:07;;;;;;;15.60;6.70;;;;;;;3.52;61.15;101477.08;105612;1259;61026;-51
2023/02/13 11:24:35;;;;;;;11.50;4.70;;;;;;;3.59;61.16;101471.13;105357;1259;74930;-52
2023/02/13 11:27:07;;;;;;;13.40;6.30;;;;;;;3.73;61.09;101470.80;105400;1257;71249;-52
2023/02/13 11:29:37;;;;;;;12.50;7.10;;;;;;;3.89;60.86;101471.14;105464;1257;73603;-51
2023/02/13 11:32:14;;;;;;;12.40;5.80;;;;;;;4.00;60.57;101469.87;105373;1256;60447;-51
2023/02/13 11:34:46;;;;;;;18.00;6.20;;;;;;;4.03;60.33;101464.57;105433;1256;61681;-51
2023/02/13 11:37:25;;;;;;;17.90;12.60;;;;;;;4.06;60.38;101462.73;105584;1258;75093;-50
2023/02/13 11:39:59;;;;;;;11.90;4.30;;;;;;;4.04;60.20;101461.06;105607;1257;62709;-51
2023/02/13 11:42:30;;;;;;;17.90;12.00;;;;;;;4.03;60.45;101460.75;105386;1257;73640;-51
2023/02/13 11:45:05;;;;;;;12.60;5.30;;;;;;;4.02;60.53;101455.23;105569;1255;60478;-51
2023/02/13 11:47:39;;;;;;;11.60;4.60;;;;;;;4.04;60.53;101452.21;105463;1255;60444;-51
2023/02/13 11:50:19;;;;;;;17.00;10.90;;;;;;;4.10;60.48;101452.33;105440;1258;66221;-50
2023/02/13 11:52:59;;;;;;;10.40;4.40;;;;;;;4.19;60.48;101448.90;105489;1257;62695;-50
2023/02/13 11:55:37;;;;;;;8.40;4.00;;;;;;;4.20;60.48;101454.59;105368;1260;64049;-51
2023/02/13 11:58:14;;;;;;;9.70;4.80;;;;;;;4.13;60.83;101452.42;105453;1257;61291;-49
2023/02/13 12:00:44;;;;;;;15.10;10.10;;;;;;;4.05;61.11;101447.66;105249;1257;60457;-50
2023/02/13 12:03:33;;;;;;;14.30;7.00;;;;;;;4.01;61.32;101441.05;104992;1260;74600;-50
2023/02/13 12:06:09;;;;;;;24.90;14.00;;;;;;;4.00;61.44;101437.95;105178;1259;62310;-50
2023/02/13 12:08:38;;;;;;;18.10;9.30;;;;;;;4.01;61.65;101432.00;105372;1260;64021;-50
2023/02/13 12:11:27;;;;;;;9.60;5.00;;;;;;;4.01;61.72;101427.52;105194;1256;60469;-50
2023/02/13 12:13:55;;;;;;;10.30;5.30;;;;;;;4.00;61.91;101421.61;105142;1257;60468;-50
2023/02/13 12:16:44;;;;;;;10.70;4.90;;;;;;;4.11;61.85;101417.21;104978;1260;66348;-51
2023/02/13 12:19:27;;;;;;;17.60;11.90;;;;;;;4.24;61.63;101413.11;104928;1257;63613;-51
2023/02/13 12:22:07;;;;;;;9.90;5.20;;;;;;;4.27;61.45;101412.32;105267;1258;65174;-51